Time;durP1;ratioP1;P1;durP2;ratioP2;P2;SDS_P1;SDS_P2;PMS_P1;PMS_P2;Temp;Humidity;BMP_temperature;BMP_pressure;BME280_temperature;BME280_humidity;BME280_pressure;Samples;Min_cycle;Max_cycle;Signal;HPM_P1;HPM_P2
2022/09/11 00:00:53;;;;;;;1.97;1.87;;;;;;;16.95;83.13;98720.72;5059423;28;41877;-77
2022/09/11 00:03:23;;;;;;;1.80;1.70;;;;;;;16.96;83.03;98714.38;5076088;28;41968;-76
2022/09/11 00:05:51;;;;;;;1.33;1.20;;;;;;;16.96;82.97;98719.75;5094294;28;39752;-76
2022/09/11 00:08:21;;;;;;;1.43;1.20;;;;;;;16.97;83.27;98718.75;5059016;28;43773;-77
2022/09/11 00:10:49;;;;;;;2.87;1.80;;;;;;;17.00;82.64;98721.16;5059239;28;43887;-77
2022/09/11 00:13:20;;;;;;;1.73;1.60;;;;;;;17.02;82.52;98716.53;5076262;28;42293;-77
2022/09/11 00:15:49;;;;;;;3.50;1.70;;;;;;;17.02;82.63;98714.69;5094295;28;40204;-77
2022/09/11 00:18:20;;;;;;;2.40;1.67;;;;;;;17.02;82.97;98717.38;5059277;28;40605;-76
2022/09/11 00:20:49;;;;;;;1.63;1.53;;;;;;;16.99;83.09;98709.59;5058874;28;43989;-76
2022/09/11 00:23:17;;;;;;;1.93;1.80;;;;;;;16.98;83.37;98709.75;5076020;28;41987;-77
2022/09/11 00:25:47;;;;;;;1.57;1.43;;;;;;;16.96;83.15;98707.22;5074530;28;39816;-76
2022/09/11 00:28:15;;;;;;;1.80;1.70;;;;;;;16.93;83.33;98707.50;5074311;28;40671;-77
2022/09/11 00:30:44;;;;;;;1.47;1.37;;;;;;;16.96;83.37;98709.88;5074824;28;43763;-77
2022/09/11 00:33:12;;;;;;;1.70;1.60;;;;;;;16.94;83.49;98713.72;5074754;28;41115;-78
2022/09/11 00:35:41;;;;;;;3.30;1.70;;;;;;;16.94;83.59;98725.22;5075272;28;39931;-75
2022/09/11 00:38:10;;;;;;;1.73;1.63;;;;;;;16.86;83.46;98703.69;5091622;28;42633;-76
2022/09/11 00:40:46;;;;;;;1.73;1.50;;;;;;;16.86;83.65;98706.34;5074208;28;43377;-77
2022/09/11 00:43:15;;;;;;;1.53;1.43;;;;;;;16.88;83.58;98705.25;5071867;28;42291;-78
2022/09/11 00:45:44;;;;;;;1.50;1.40;;;;;;;16.93;83.54;98712.00;5074481;28;41715;-76
2022/09/11 00:48:19;;;;;;;2.40;2.20;;;;;;;16.94;83.37;98711.03;5074503;28;40626;-78
2022/09/11 00:50:47;;;;;;;2.07;1.93;;;;;;;16.94;83.44;98711.03;5074486;28;43756;-76
2022/09/11 00:53:17;;;;;;;1.43;1.33;;;;;;;16.96;83.36;98722.41;5092742;28;42234;-77
2022/09/11 00:55:51;;;;;;;1.90;1.53;;;;;;;16.98;83.64;98717.78;5092864;28;39606;-76
2022/09/11 00:58:22;;;;;;;1.80;1.70;;;;;;;16.98;83.41;98715.09;5075191;28;40665;-76
2022/09/11 01:00:53;;;;;;;1.40;1.30;;;;;;;16.99;83.29;98712.28;5089366;28;43676;-76
2022/09/11 01:03:22;;;;;;;1.70;1.60;;;;;;;17.00;83.13;98715.81;5058715;28;41136;-75
2022/09/11 01:05:51;;;;;;;2.27;1.60;;;;;;;16.98;83.60;98715.09;5075465;28;40755;-77
2022/09/11 01:08:19;;;;;;;1.97;1.87;;;;;;;16.97;83.58;98713.41;5075416;28;41942;-75
2022/09/11 01:11:02;;;;;;;1.70;1.60;;;;;;;16.96;83.54;98711.72;5074920;28;44355;-77
2022/09/11 01:13:36;;;;;;;1.97;1.87;;;;;;;16.97;83.93;98713.41;5074799;28;41318;-77
2022/09/11 01:16:13;;;;;;;1.80;1.70;;;;;;;16.94;83.55;98717.19;5058272;28;38937;-76
2022/09/11 01:18:49;;;;;;;2.10;2.00;;;;;;;16.92;83.90;98713.84;5057944;28;41935;-76
2022/09/11 01:21:36;;;;;;;2.20;2.00;;;;;;;16.87;84.24;98708.91;5072179;28;42695;-76
2022/09/11 01:24:19;;;;;;;2.73;2.50;;;;;;;16.86;84.20;98712.56;5073201;28;42914;-77
2022/09/11 01:27:08;;;;;;;2.60;2.40;;;;;;;16.88;84.41;98709.75;5056872;28;38595;-76
2022/09/11 01:29:42;;;;;;;3.13;2.57;;;;;;;16.93;84.54;98717.38;5056858;28;40715;-78
2022/09/11 01:32:17;;;;;;;3.07;2.87;;;;;;;16.89;84.21;98711.44;5057254;28;41611;-76
2022/09/11 01:34:51;;;;;;;3.70;3.40;;;;;;;16.88;84.81;98718.63;5089606;28;42024;-78
2022/09/11 01:37:25;;;;;;;3.53;2.70;;;;;;;16.73;85.07;98703.94;5087733;28;39692;-78
2022/09/11 01:40:01;;;;;;;3.30;3.00;;;;;;;16.72;85.03;98704.94;5056889;28;40762;-78
2022/09/11 01:42:34;;;;;;;3.20;2.90;;;;;;;16.79;85.21;98727.47;5073557;28;41639;-77
2022/09/11 01:45:05;;;;;;;5.23;3.30;;;;;;;16.68;85.41;98711.56;5056764;28;43121;-77
2022/09/11 01:47:35;;;;;;;3.37;3.07;;;;;;;16.75;85.62;98730.56;5056753;28;38765;-77
2022/09/11 01:50:08;;;;;;;3.40;3.10;;;;;;;16.75;85.88;98728.72;5073366;28;42748;-77
2022/09/11 01:52:44;;;;;;;3.37;3.07;;;;;;;16.54;85.90;98695.88;5057298;28;42791;-77
2022/09/11 01:55:17;;;;;;;5.23;3.60;;;;;;;16.76;86.06;98722.41;5056955;28;41198;-76
2022/09/11 01:57:50;;;;;;;3.20;2.90;;;;;;;16.77;86.14;98729.44;5071775;28;40409;-77
2022/09/11 02:00:20;;;;;;;3.73;3.40;;;;;;;16.77;85.80;98734.78;5074169;28;40804;-77
2022/09/11 02:02:58;;;;;;;3.40;3.13;;;;;;;16.78;86.24;98724.94;5071775;28;43791;-78
2022/09/11 02:05:32;;;;;;;3.40;3.10;;;;;;;16.79;85.64;98738.19;5057516;28;42291;-78
2022/09/11 02:08:04;;;;;;;3.87;3.50;;;;;;;16.81;85.96;98738.03;5057614;28;38790;-77
2022/09/11 02:10:36;;;;;;;3.37;3.10;;;;;;;16.82;85.87;98737.88;5074025;28;41636;-77
2022/09/11 02:13:12;;;;;;;4.60;3.93;;;;;;;16.81;85.79;98736.19;5056984;28;43472;-77
2022/09/11 02:15:44;;;;;;;3.47;3.17;;;;;;;16.80;86.05;98731.84;5074155;28;41633;-78
2022/09/11 02:18:20;;;;;;;5.23;3.03;;;;;;;16.81;85.94;98736.19;5073662;28;38882;-79
2022/09/11 02:20:47;;;;;;;3.60;3.10;;;;;;;16.81;85.72;98736.19;5072668;28;40728;-79
2022/09/11 02:23:15;;;;;;;3.63;3.27;;;;;;;16.83;85.95;98728.03;5056301;28;43866;-78
2022/09/11 02:25:43;;;;;;;4.30;3.90;;;;;;;16.84;85.78;98741.25;5055470;28;41162;-77
2022/09/11 02:28:11;;;;;;;3.50;3.20;;;;;;;16.71;86.08;98724.63;5073301;28;39959;-78
2022/09/11 02:30:44;;;;;;;4.43;4.03;;;;;;;16.82;86.21;98742.38;5056462;28;42161;-78
2022/09/11 02:33:30;;;;;;;4.27;3.97;;;;;;;16.80;86.63;98745.22;5087210;28;43806;-77
2022/09/11 02:36:08;;;;;;;3.97;3.60;;;;;;;16.76;86.07;98738.44;5070025;28;42548;-77
2022/09/11 02:38:51;;;;;;;3.83;3.47;;;;;;;16.83;86.48;98747.59;5073190;28;39940;-78
2022/09/11 02:41:27;;;;;;;4.40;3.90;;;;;;;16.82;86.07;98748.56;5073353;28;41851;-77
2022/09/11 02:44:02;;;;;;;4.73;4.20;;;;;;;16.68;86.25;98734.78;5087463;28;43661;-78
2022/09/11 02:46:47;;;;;;;4.60;4.20;;;;;;;16.77;86.42;98756.19;5073024;28;42413;-77
2022/09/11 02:49:25;;;;;;;6.30;4.23;;;;;;;16.74;86.73;98756.44;5071166;28;40219;-78
2022/09/11 02:52:01;;;;;;;4.77;4.20;;;;;;;16.72;86.75;98758.41;5056553;28;40767;-79
2022/09/11 02:54:40;;;;;;;5.43;4.77;;;;;;;16.70;86.62;98755.03;5056129;28;42718;-77
2022/09/11 02:57:14;;;;;;;4.60;4.20;;;;;;;16.71;86.73;98759.38;5090433;28;42258;-78
2022/09/11 02:59:50;;;;;;;4.57;4.17;;;;;;;16.62;86.82;98744.19;5056249;28;38624;-77
2022/09/11 03:02:19;;;;;;;5.50;5.00;;;;;;;16.72;87.00;98760.25;5087917;28;41469;-78
2022/09/11 03:04:50;;;;;;;5.27;4.77;;;;;;;16.71;86.80;98767.41;5073630;28;42430;-77
2022/09/11 03:07:18;;;;;;;5.33;4.93;;;;;;;16.67;86.65;98755.31;5057031;28;42371;-77
2022/09/11 03:09:46;;;;;;;5.30;4.80;;;;;;;16.71;86.39;98770.09;5056724;28;39064;-78
2022/09/11 03:12:20;;;;;;;4.70;4.30;;;;;;;16.70;86.68;98768.41;5056904;28;40593;-78
2022/09/11 03:14:51;;;;;;;4.83;4.37;;;;;;;16.68;86.43;98773.06;5074007;28;42545;-77
2022/09/11 03:17:20;;;;;;;4.50;4.07;;;;;;;16.70;86.78;98779.09;5056849;28;41715;-79
2022/09/11 03:19:48;;;;;;;4.63;4.23;;;;;;;16.67;86.72;98771.38;5090655;28;40150;-78
2022/09/11 03:22:16;;;;;;;4.57;4.20;;;;;;;16.67;86.34;98774.03;5091715;28;42437;-77
2022/09/11 03:24:44;;;;;;;4.67;4.23;;;;;;;16.70;86.74;98781.75;5073341;28;41723;-77
2022/09/11 03:27:13;;;;;;;4.73;4.33;;;;;;;16.58;86.43;98763.25;5059230;28;40893;-78
2022/09/11 03:29:43;;;;;;;5.43;4.67;;;;;;;16.66;86.51;98785.72;5075918;28;39124;-78
2022/09/11 03:32:11;;;;;;;5.97;5.37;;;;;;;16.61;87.10;98785.22;5076104;28;42033;-77
2022/09/11 03:34:40;;;;;;;5.13;4.63;;;;;;;16.61;86.95;98787.91;5075344;28;42033;-77
2022/09/11 03:37:09;;;;;;;5.17;4.67;;;;;;;16.60;87.04;98799.56;5075659;28;42263;-77
2022/09/11 03:39:36;;;;;;;4.80;4.40;;;;;;;16.49;86.62;98783.63;5058832;28;40083;-78
2022/09/11 03:42:04;;;;;;;4.97;4.47;;;;;;;16.58;86.75;98798.84;5075967;28;42517;-77
2022/09/11 03:44:32;;;;;;;4.23;3.83;;;;;;;16.23;86.84;98729.78;5076573;28;42540;-77
2022/09/11 03:47:00;;;;;;;4.50;4.10;;;;;;;16.52;86.50;98786.03;5058529;28;42399;-77
2022/09/11 03:49:28;;;;;;;4.97;4.57;;;;;;;16.64;86.58;98801.03;5058388;28;38954;-77
2022/09/11 03:51:57;;;;;;;4.20;3.80;;;;;;;16.66;86.76;98807.09;5074773;28;41579;-77
2022/09/11 03:54:26;;;;;;;4.40;4.00;;;;;;;16.68;86.56;98809.66;5058636;28;41757;-78
2022/09/11 03:56:54;;;;;;;4.77;4.37;;;;;;;16.66;86.47;98807.09;5058821;28;41135;-78
2022/09/11 03:59:22;;;;;;;4.80;4.00;;;;;;;16.59;86.45;98795.22;5075996;28;40267;-76
2022/09/11 04:01:51;;;;;;;5.97;4.03;;;;;;;16.43;86.45;98778.84;5093338;28;41752;-78
2022/09/11 04:04:20;;;;;;;4.20;3.90;;;;;;;16.63;86.35;98812.72;5059110;28;41267;-77
2022/09/11 04:06:47;;;;;;;4.20;3.80;;;;;;;16.70;86.03;98819.19;5076344;28;42154;-77
2022/09/11 04:09:17;;;;;;;3.63;3.33;;;;;;;16.73;86.06;98818.94;5076469;28;39993;-77
2022/09/11 04:11:45;;;;;;;4.30;4.00;;;;;;;16.70;86.00;98819.19;5076235;28;42760;-78
2022/09/11 04:14:21;;;;;;;4.50;4.07;;;;;;;16.73;85.96;98831.47;5059687;28;41754;-76
2022/09/11 04:16:49;;;;;;;5.97;3.43;;;;;;;16.68;86.35;98836.38;5076105;28;41138;-77
2022/09/11 04:19:20;;;;;;;3.93;3.63;;;;;;;16.60;86.06;98826.31;5075879;28;41227;-77
2022/09/11 04:21:48;;;;;;;5.23;4.73;;;;;;;16.60;86.63;98839.69;5075112;28;41865;-78
2022/09/11 04:24:18;;;;;;;4.30;3.90;;;;;;;16.57;86.91;98845.28;5057137;28;42810;-78
2022/09/11 04:26:47;;;;;;;4.27;3.97;;;;;;;16.56;86.86;98838.28;5058241;28;40987;-78
2022/09/11 04:29:21;;;;;;;5.07;3.93;;;;;;;16.55;87.10;98841.94;5090272;28;39918;-77
2022/09/11 04:31:50;;;;;;;3.67;3.37;;;;;;;16.53;86.83;98849.22;5058195;28;42092;-77
2022/09/11 04:34:19;;;;;;;3.53;3.23;;;;;;;16.52;86.91;98852.88;5074614;28;43620;-78
2022/09/11 04:36:47;;;;;;;3.00;2.80;;;;;;;16.50;87.14;98852.16;5057753;28;42419;-78
2022/09/11 04:39:21;;;;;;;3.70;3.27;;;;;;;16.49;87.08;98858.47;5072920;28;41044;-78
2022/09/11 04:41:49;;;;;;;3.90;3.50;;;;;;;16.47;87.41;98857.78;5075141;28;42955;-78
2022/09/11 04:44:19;;;;;;;4.57;3.70;;;;;;;16.45;87.24;98860.56;5057607;28;43394;-78
2022/09/11 04:46:47;;;;;;;3.80;3.50;;;;;;;16.36;87.46;98857.84;5074734;28;42365;-76
2022/09/11 04:49:15;;;;;;;3.77;3.47;;;;;;;16.47;87.30;98869.31;5057402;28;40175;-77
2022/09/11 04:51:46;;;;;;;3.50;3.30;;;;;;;16.36;87.13;98852.50;5071640;28;41805;-77
2022/09/11 04:54:19;;;;;;;4.33;3.27;;;;;;;16.50;86.84;98877.06;5057111;28;43061;-77
2022/09/11 04:56:49;;;;;;;2.97;2.77;;;;;;;16.51;87.01;98878.78;5058286;28;40637;-77
2022/09/11 04:59:21;;;;;;;4.13;2.97;;;;;;;16.58;86.56;98884.41;5090454;28;40279;-77
2022/09/11 05:02:09;;;;;;;3.73;3.30;;;;;;;16.58;86.62;98895.13;5093044;28;41646;-77
2022/09/11 05:04:40;;;;;;;3.30;3.00;;;;;;;16.60;86.50;98897.66;5058177;28;42878;-78
2022/09/11 05:07:12;;;;;;;2.80;2.60;;;;;;;16.58;86.46;98895.13;5058353;28;40749;-78
2022/09/11 05:09:41;;;;;;;2.87;2.67;;;;;;;16.63;86.49;98903.63;5074052;28;40881;-77
2022/09/11 05:12:12;;;;;;;3.00;2.80;;;;;;;16.67;86.57;98893.53;5075081;28;42467;-77
2022/09/11 05:14:40;;;;;;;3.23;2.93;;;;;;;16.68;86.42;98901.41;5058211;28;41841;-77
2022/09/11 05:17:08;;;;;;;3.37;3.17;;;;;;;16.70;86.47;98904.78;5058055;28;41200;-77
2022/09/11 05:19:42;;;;;;;2.67;2.47;;;;;;;16.74;86.38;98914.25;5057185;28;39082;-77
2022/09/11 05:22:10;;;;;;;2.97;2.67;;;;;;;16.77;86.08;98908.63;5073608;28;41818;-76
2022/09/11 05:24:41;;;;;;;2.77;2.40;;;;;;;16.79;86.05;98909.34;5073695;28;41249;-77
2022/09/11 05:27:10;;;;;;;3.37;3.07;;;;;;;16.83;85.90;98910.75;5057267;28;41103;-77
2022/09/11 05:29:40;;;;;;;2.87;2.67;;;;;;;16.87;85.58;98912.19;5057041;28;41429;-77
2022/09/11 05:32:13;;;;;;;2.63;2.30;;;;;;;16.79;85.54;98895.97;5071079;28;42812;-78
2022/09/11 05:34:42;;;;;;;2.80;2.60;;;;;;;16.93;85.40;98923.34;5090748;28;42629;-78
2022/09/11 05:37:13;;;;;;;4.00;2.50;;;;;;;16.95;85.21;98924.03;5071144;28;42919;-77
2022/09/11 05:39:45;;;;;;;2.67;2.47;;;;;;;16.97;85.02;98930.94;5074076;28;40041;-78
2022/09/11 05:42:15;;;;;;;2.50;2.30;;;;;;;16.99;84.88;98930.81;5073824;28;41722;-77
2022/09/11 05:44:48;;;;;;;2.60;2.40;;;;;;;17.00;84.94;98933.38;5072622;28;42646;-77
2022/09/11 05:47:17;;;;;;;2.27;2.07;;;;;;;17.04;85.11;98939.31;5073240;28;43108;-77
2022/09/11 05:49:48;;;;;;;3.40;3.10;;;;;;;17.07;84.94;98944.38;5056446;28;40042;-78
2022/09/11 05:52:16;;;;;;;2.37;2.17;;;;;;;17.11;84.68;98945.81;5073374;28;41493;-77
2022/09/11 05:54:44;;;;;;;2.60;2.40;;;;;;;17.06;84.54;98938.16;5073723;28;42510;-77
2022/09/11 05:57:14;;;;;;;3.17;2.87;;;;;;;17.20;84.41;98956.53;5090794;28;42103;-77
2022/09/11 05:59:42;;;;;;;2.97;2.67;;;;;;;17.24;84.38;98951.78;5073672;28;40161;-77
2022/09/11 06:02:11;;;;;;;2.77;2.57;;;;;;;17.29;84.52;98960.25;5073709;28;42656;-78
2022/09/11 06:04:45;;;;;;;2.87;2.67;;;;;;;17.34;84.33;98952.63;5072226;28;43563;-76
2022/09/11 06:07:13;;;;;;;3.33;2.97;;;;;;;17.38;84.13;98954.06;5056510;28;43440;-77
2022/09/11 06:09:43;;;;;;;3.60;3.30;;;;;;;17.40;84.10;98957.47;5073469;28;40795;-78
2022/09/11 06:12:11;;;;;;;3.17;2.93;;;;;;;17.46;83.88;98961.41;5056394;28;43126;-77
2022/09/11 06:14:41;;;;;;;3.57;3.27;;;;;;;17.43;83.80;98957.16;5056394;28;41163;-78
2022/09/11 06:17:09;;;;;;;3.33;3.03;;;;;;;17.52;83.66;98972.44;5073915;28;41259;-77
2022/09/11 06:19:38;;;;;;;3.03;2.83;;;;;;;17.57;83.72;98970.19;5057186;28;39001;-77
2022/09/11 06:22:06;;;;;;;2.70;2.50;;;;;;;17.62;83.45;98977.81;5074475;28;41708;-77
2022/09/11 06:24:38;;;;;;;3.57;3.20;;;;;;;17.68;83.32;98971.09;5056030;28;42162;-77
2022/09/11 06:27:06;;;;;;;3.40;3.00;;;;;;;17.77;83.19;98976.47;5057145;28;41232;-79
2022/09/11 06:29:37;;;;;;;3.50;3.30;;;;;;;17.70;83.04;98955.72;5072778;28;39740;-78
2022/09/11 06:32:05;;;;;;;3.87;3.57;;;;;;;17.89;82.75;98986.09;5074090;28;40452;-78
2022/09/11 06:34:33;;;;;;;3.30;3.00;;;;;;;17.91;82.72;98977.91;5073307;28;42908;-77
2022/09/11 06:37:07;;;;;;;3.40;3.10;;;;;;;17.98;82.67;98979.03;5056784;28;41170;-77
2022/09/11 06:39:34;;;;;;;3.53;3.23;;;;;;;17.96;82.26;98978.31;5074127;28;39689;-77
2022/09/11 06:42:02;;;;;;;3.90;3.60;;;;;;;18.10;82.04;98987.78;5073915;28;43003;-79
2022/09/11 06:44:34;;;;;;;4.60;4.20;;;;;;;18.14;82.08;98995.41;5071979;28;42885;-76
2022/09/11 06:47:04;;;;;;;3.60;3.30;;;;;;;18.15;81.77;98997.13;5057148;28;42234;-77
2022/09/11 06:49:35;;;;;;;4.20;3.80;;;;;;;18.27;81.67;99006.72;5090580;28;39626;-77
2022/09/11 06:52:28;;;;;;;5.27;4.03;;;;;;;18.29;81.38;98996.72;5070592;28;41771;-76
2022/09/11 06:55:21;;;;;;;4.53;4.10;;;;;;;18.43;81.13;99008.81;5087976;28;43676;-78
2022/09/11 06:57:56;;;;;;;4.30;3.67;;;;;;;18.53;81.04;99006.16;5070417;28;42300;-78
2022/09/11 07:00:27;;;;;;;4.87;3.80;;;;;;;18.56;80.74;98995.13;5059587;28;42121;-76
2022/09/11 07:02:55;;;;;;;5.43;4.43;;;;;;;18.69;80.02;99008.25;5076775;28;41874;-78
2022/09/11 07:05:24;;;;;;;4.50;4.10;;;;;;;18.77;79.86;99006.56;5076676;28;43494;-79
2022/09/11 07:07:55;;;;;;;5.30;4.80;;;;;;;18.78;79.14;99002.91;5076622;28;42617;-79
2022/09/11 07:10:25;;;;;;;5.63;5.17;;;;;;;18.82;79.13;99015.03;5059505;28;38691;-78
2022/09/11 07:12:56;;;;;;;5.20;4.70;;;;;;;18.87;78.83;99020.81;5059911;28;42049;-77
2022/09/11 07:15:25;;;;;;;5.37;4.63;;;;;;;18.91;78.58;99014.19;5093509;28;43781;-77
2022/09/11 07:17:54;;;;;;;4.73;4.33;;;;;;;18.94;78.39;99019.22;5076214;28;41558;-76
2022/09/11 07:20:22;;;;;;;5.20;4.70;;;;;;;18.95;78.25;99012.88;5076142;28;41056;-77
2022/09/11 07:22:50;;;;;;;5.13;4.67;;;;;;;18.92;78.53;99006.94;5059679;28;40694;-76
2022/09/11 07:25:20;;;;;;;5.80;5.30;;;;;;;19.05;78.31;99025.41;5058825;28;41269;-80
2022/09/11 07:27:48;;;;;;;4.97;4.53;;;;;;;19.08;77.43;99025.97;5076054;28;43526;-77
2022/09/11 07:30:17;;;;;;;5.27;4.77;;;;;;;19.13;77.34;99028.25;5076403;28;39821;-79
2022/09/11 07:32:48;;;;;;;5.77;5.27;;;;;;;19.10;77.20;99031.22;5059393;28;41782;-76
2022/09/11 07:35:20;;;;;;;5.13;4.73;;;;;;;19.18;77.27;99034.84;5092778;28;42549;-78
2022/09/11 07:37:50;;;;;;;5.17;4.67;;;;;;;19.23;77.04;99040.66;5073492;28;42161;-80
2022/09/11 07:40:20;;;;;;;6.37;5.23;;;;;;;19.19;76.46;99030.31;5058848;28;40548;-81
2022/09/11 07:42:49;;;;;;;6.07;5.53;;;;;;;19.28;76.37;99040.22;5059189;28;42820;-79
2022/09/11 07:45:17;;;;;;;6.03;5.53;;;;;;;19.30;76.55;99046.25;5058625;28;41884;-77
2022/09/11 07:47:45;;;;;;;5.60;5.10;;;;;;;19.40;76.35;99051.63;5058909;28;41418;-76
2022/09/11 07:50:13;;;;;;;4.93;4.53;;;;;;;19.46;76.31;99037.59;5058340;28;39082;-80
2022/09/11 07:52:42;;;;;;;6.30;5.70;;;;;;;19.43;76.20;99035.19;5075552;28;41790;-79
2022/09/11 07:55:10;;;;;;;6.73;6.03;;;;;;;19.65;75.91;99069.81;5075610;28;43852;-78
2022/09/11 07:57:40;;;;;;;8.50;6.27;;;;;;;19.77;75.44;99062.38;5075592;28;42876;-75
2022/09/11 08:00:12;;;;;;;6.43;5.90;;;;;;;19.90;74.99;99065.56;5075035;28;39174;-76
2022/09/11 08:02:49;;;;;;;5.67;5.17;;;;;;;20.05;74.60;99069.44;5075565;28;40602;-78
2022/09/11 08:05:25;;;;;;;6.93;5.93;;;;;;;20.20;74.52;99070.63;5058271;28;43097;-77
2022/09/11 08:07:54;;;;;;;5.50;5.00;;;;;;;20.38;74.19;99073.38;5075496;28;43178;-77
2022/09/11 08:10:22;;;;;;;6.40;5.80;;;;;;;20.55;73.76;99079.75;5057763;28;38549;-78
2022/09/11 08:12:52;;;;;;;6.10;5.50;;;;;;;20.56;72.92;99073.34;5058339;28;40476;-77
2022/09/11 08:15:20;;;;;;;6.63;5.77;;;;;;;20.61;72.41;99084.53;5075041;28;41250;-77
2022/09/11 08:17:50;;;;;;;6.47;5.87;;;;;;;20.57;72.48;99061.59;5058284;28;41530;-78
2022/09/11 08:20:18;;;;;;;7.17;6.47;;;;;;;20.69;71.64;99087.28;5057804;28;39196;-77
2022/09/11 08:22:46;;;;;;;7.40;6.40;;;;;;;20.70;71.99;99088.97;5075354;28;42697;-78
2022/09/11 08:25:14;;;;;;;8.10;7.30;;;;;;;20.68;71.08;99093.66;5057413;28;42025;-79
2022/09/11 08:27:42;;;;;;;7.43;6.70;;;;;;;20.74;71.04;99093.91;5058085;28;41142;-77
2022/09/11 08:30:12;;;;;;;7.43;6.73;;;;;;;20.83;70.72;99099.34;5057968;28;39654;-77
2022/09/11 08:32:40;;;;;;;6.37;5.87;;;;;;;20.94;70.62;99097.25;5074779;28;42599;-76
2022/09/11 08:35:09;;;;;;;6.90;6.30;;;;;;;21.04;71.04;99092.63;5057406;28;41830;-78
2022/09/11 08:37:38;;;;;;;6.97;6.30;;;;;;;21.24;70.49;99106.78;5058028;28;40867;-79
2022/09/11 08:40:09;;;;;;;7.50;6.90;;;;;;;21.20;70.67;99091.09;5075571;28;40589;-80
2022/09/11 08:42:39;;;;;;;6.47;5.87;;;;;;;21.39;70.04;99117.81;5072706;28;41454;-77
2022/09/11 08:45:12;;;;;;;6.93;6.23;;;;;;;21.32;69.45;99114.94;5093455;28;43693;-79
2022/09/11 08:47:50;;;;;;;7.03;6.23;;;;;;;21.17;69.84;99120.00;5089604;28;43172;-81
2022/09/11 08:50:22;;;;;;;5.23;4.73;;;;;;;21.10;70.25;99121.63;5074927;28;40629;-78
2022/09/11 08:52:53;;;;;;;7.00;6.30;;;;;;;21.05;70.06;99105.09;5072567;28;41688;-78
2022/09/11 08:55:30;;;;;;;6.00;5.40;;;;;;;21.21;69.73;99120.56;5074810;28;43713;-76
2022/09/11 08:58:07;;;;;;;5.70;5.17;;;;;;;21.31;69.44;99120.47;5089313;28;43151;-79
2022/09/11 09:00:43;;;;;;;5.47;4.97;;;;;;;21.34;69.77;99109.38;5075563;28;40163;-79
2022/09/11 09:03:33;;;;;;;7.40;6.70;;;;;;;21.45;68.80;99114.50;5089226;28;41920;-79
2022/09/11 09:06:23;;;;;;;5.90;5.30;;;;;;;21.59;68.53;99126.56;5072296;28;43084;-77
2022/09/11 09:09:03;;;;;;;6.73;6.00;;;;;;;21.61;68.00;99125.41;5072686;28;42989;-77
2022/09/11 09:11:40;;;;;;;6.07;5.03;;;;;;;21.65;67.14;99134.00;5059028;28;38976;-78
2022/09/11 09:14:44;;;;;;;6.37;5.50;;;;;;;21.68;67.29;99131.00;5057896;28;40821;-78
2022/09/11 09:17:18;;;;;;;5.40;4.93;;;;;;;21.98;67.17;99129.63;5058028;28;45278;-76
2022/09/11 09:19:54;;;;;;;6.50;5.10;;;;;;;22.40;66.23;99130.50;5090276;28;42261;-80
2022/09/11 09:22:25;;;;;;;5.83;5.13;;;;;;;23.07;64.57;99139.41;5071229;28;40639;-78
2022/09/11 09:24:59;;;;;;;6.10;5.50;;;;;;;23.49;62.72;99141.09;5091418;28;41827;-83
2022/09/11 09:27:34;;;;;;;6.07;5.33;;;;;;;24.00;60.47;99151.47;5072161;28;42966;-78
2022/09/11 09:30:05;;;;;;;4.33;3.90;;;;;;;24.53;58.91;99144.50;5073953;28;42196;-81
2022/09/11 09:32:41;;;;;;;7.23;4.30;;;;;;;24.83;57.94;99161.78;5071760;28;40211;-79
2022/09/11 09:35:18;;;;;;;4.73;4.17;;;;;;;24.79;57.71;99155.03;5057017;28;40763;-78
2022/09/11 09:37:47;;;;;;;3.97;3.67;;;;;;;25.20;57.45;99163.75;5075237;28;42816;-83
2022/09/11 09:40:17;;;;;;;3.83;3.53;;;;;;;25.38;57.51;99160.69;5056345;28;42286;-81
2022/09/11 09:43:16;;;;;;;4.43;4.03;;;;;;;25.23;55.41;99174.19;5055270;28;39889;-82
2022/09/11 09:45:58;;;;;;;4.70;4.30;;;;;;;24.90;55.44;99129.38;5073775;28;41250;-84
2022/09/11 09:48:27;;;;;;;4.60;4.20;;;;;;;25.05;55.83;99160.13;5067878;28;42865;-85
2022/09/11 09:50:56;;;;;;;5.37;4.87;;;;;;;24.79;56.22;99121.66;5077657;28;43456;-81
2022/09/11 09:53:32;;;;;;;4.77;4.37;;;;;;;24.94;55.39;99152.41;5090223;28;39981;-85
2022/09/11 09:56:01;;;;;;;4.53;4.10;;;;;;;24.97;55.70;99162.91;5087784;28;42375;-80
2022/09/11 09:58:33;;;;;;;4.70;4.23;;;;;;;25.00;55.58;99162.53;5071949;28;41594;-83
2022/09/11 10:01:01;;;;;;;4.87;4.40;;;;;;;25.10;54.34;99144.16;5055694;28;43081;-82
2022/09/11 10:03:30;;;;;;;4.40;4.00;;;;;;;25.41;54.93;99153.03;5089877;28;40085;-84
2022/09/11 10:05:59;;;;;;;5.10;4.70;;;;;;;25.44;54.06;99172.69;5070968;28;41827;-81
2022/09/11 10:08:34;;;;;;;4.87;4.47;;;;;;;25.99;53.91;99166.91;5089832;28;42827;-83
2022/09/11 10:11:04;;;;;;;4.80;4.17;;;;;;;26.55;51.22;99187.13;5068961;28;42977;-81
2022/09/11 10:13:34;;;;;;;4.40;3.93;;;;;;;26.96;49.68;99192.00;5062669;28;38944;-82
2022/09/11 10:16:03;;;;;;;4.13;3.73;;;;;;;26.82;48.68;99191.84;5062453;28;40739;-82
2022/09/11 10:18:45;;;;;;;3.57;3.10;;;;;;;26.61;50.88;99186.34;5079665;28;42569;-79
2022/09/11 10:21:24;;;;;;;4.17;3.70;;;;;;;26.62;50.81;99185.31;5068981;28;42064;-80
2022/09/11 10:23:54;;;;;;;4.23;3.93;;;;;;;27.24;49.48;99192.09;5062449;28;39690;-84
2022/09/11 10:26:27;;;;;;;3.80;3.50;;;;;;;27.17;48.60;99192.03;5046032;28;40572;-83
2022/09/11 10:28:59;;;;;;;3.23;2.97;;;;;;;26.80;48.92;99191.19;5062502;28;42158;-81
2022/09/11 10:31:27;;;;;;;3.40;3.20;;;;;;;27.02;49.46;99191.25;5062612;28;43256;-79
2022/09/11 10:33:57;;;;;;;4.27;3.97;;;;;;;26.68;49.15;99179.16;5060608;28;40095;-79
2022/09/11 10:36:28;;;;;;;3.23;3.03;;;;;;;26.19;50.10;99175.34;5060053;28;41603;-81
2022/09/11 10:38:58;;;;;;;3.57;3.27;;;;;;;25.71;50.71;99172.97;5061090;28;42907;-81
2022/09/11 10:41:31;;;;;;;3.23;2.93;;;;;;;25.44;51.80;99180.81;5062383;28;43304;-79
2022/09/11 10:44:01;;;;;;;2.63;2.43;;;;;;;25.20;51.81;99174.59;5047001;28;40727;-80
2022/09/11 10:46:36;;;;;;;3.33;2.97;;;;;;;25.01;50.97;99177.75;5074407;28;20234;-79
2022/09/11 10:49:19;;;;;;;3.17;2.87;;;;;;;25.08;51.41;99154.34;5071209;28;43760;-78
2022/09/11 10:52:04;;;;;;;3.67;3.47;;;;;;;26.09;50.44;99183.75;5092253;28;42605;-78
2022/09/11 10:54:46;;;;;;;3.23;3.03;;;;;;;26.61;49.92;99180.94;5072201;28;40504;-78
2022/09/11 10:57:21;;;;;;;4.87;3.10;;;;;;;27.02;49.62;99188.53;5089042;28;42768;-82
2022/09/11 11:00:05;;;;;;;3.80;3.17;;;;;;;27.69;48.42;99191.72;5073482;28;42946;-80
2022/09/11 11:02:35;;;;;;;3.10;2.90;;;;;;;29.18;45.59;99206.53;5088826;28;43095;-79
2022/09/11 11:05:06;;;;;;;3.20;2.90;;;;;;;29.96;42.99;99221.34;5073479;28;39995;-78
2022/09/11 11:07:50;;;;;;;3.80;2.93;;;;;;;31.07;39.84;99233.03;5071137;28;41757;-78
2022/09/11 11:10:32;;;;;;;2.90;2.70;;;;;;;31.84;39.68;99217.38;5073370;28;42532;-83
2022/09/11 11:13:13;;;;;;;2.90;2.70;;;;;;;32.51;38.25;99229.41;5088857;28;42849;-78
2022/09/11 11:15:56;;;;;;;2.50;2.30;;;;;;;33.44;36.31;99232.66;5073933;28;39615;-79
2022/09/11 11:18:42;;;;;;;2.97;2.67;;;;;;;34.23;35.82;99223.09;5073831;28;40855;-80
2022/09/11 11:21:24;;;;;;;2.30;2.20;;;;;;;34.86;32.97;99255.34;5091647;28;42662;-81
2022/09/11 11:24:11;;;;;;;3.10;2.47;;;;;;;35.27;32.70;99257.84;5056855;28;42229;-80
2022/09/11 11:26:54;;;;;;;2.47;1.90;;;;;;;34.86;30.73;99277.38;5088873;28;40222;-80
2022/09/11 11:29:50;;;;;;;2.30;2.10;;;;;;;34.13;33.58;99240.16;5056596;28;40861;-79
2022/09/11 11:32:36;;;;;;;2.60;2.40;;;;;;;33.82;34.46;99237.78;5072544;28;41873;-83
2022/09/11 11:35:21;;;;;;;2.83;2.50;;;;;;;34.40;33.79;99232.31;5072291;28;42522;-81
2022/09/11 11:37:50;;;;;;;2.57;2.10;;;;;;;36.34;31.55;99234.91;5073138;28;39658;-80
2022/09/11 11:40:28;;;;;;;2.22;2.05;;;;;;;38.37;28.47;99259.25;5091032;28;41602;-82
2022/09/11 11:43:00;;;;;;;2.00;1.90;;;;;;;38.69;27.19;99237.06;5056530;28;42932;-83
2022/09/11 11:45:33;;;;;;;2.13;1.95;;;;;;;38.99;27.40;99250.22;5056470;28;42233;-84
2022/09/11 11:48:07;;;;;;;1.88;1.77;;;;;;;40.67;25.54;99265.88;5090271;28;39871;-80
2022/09/11 11:50:41;;;;;;;1.70;1.60;;;;;;;40.29;25.44;99274.84;5091545;28;41579;-83
2022/09/11 11:53:18;;;;;;;2.05;1.95;;;;;;;38.32;27.04;99260.06;5088087;28;43230;-80
2022/09/11 11:55:56;;;;;;;2.13;2.03;;;;;;;38.96;25.87;99259.03;5091865;28;42958;-80
2022/09/11 11:58:35;;;;;;;1.67;1.58;;;;;;;40.76;25.01;99267.00;5070636;28;40126;-81